sensor_id;sensor_type;location;lat;lon;timestamp;temperature;humidity
63407;SHT31;49543;45.892;10.838;2023-05-07T06:22:17;20.41;73.99
63407;SHT31;49543;45.892;10.838;2023-05-07T06:24:43;20.41;75.03
63407;SHT31;49543;45.892;10.838;2023-05-07T06:27:08;20.38;75.50
63407;SHT31;49543;45.892;10.838;2023-05-07T06:29:34;20.34;75.48
63407;SHT31;49543;45.892;10.838;2023-05-07T06:32:06;20.39;74.92
63407;SHT31;49543;45.892;10.838;2023-05-07T06:34:33;20.39;75.37
63407;SHT31;49543;45.892;10.838;2023-05-07T06:36:58;20.41;75.51
63407;SHT31;49543;45.892;10.838;2023-05-07T06:39:23;20.24;74.20
63407;SHT31;49543;45.892;10.838;2023-05-07T06:41:49;20.24;73.89
63407;SHT31;49543;45.892;10.838;2023-05-07T06:44:14;20.25;73.64
63407;SHT31;49543;45.892;10.838;2023-05-07T06:46:41;20.25;74.06
63407;SHT31;49543;45.892;10.838;2023-05-07T06:49:06;20.22;73.52
63407;SHT31;49543;45.892;10.838;2023-05-07T06:51:32;20.35;73.54
63407;SHT31;49543;45.892;10.838;2023-05-07T06:53:57;20.35;73.49
63407;SHT31;49543;45.892;10.838;2023-05-07T06:56:23;20.42;74.11
63407;SHT31;49543;45.892;10.838;2023-05-07T06:58:48;20.51;74.11
63407;SHT31;49543;45.892;10.838;2023-05-07T07:01:14;20.52;73.03
63407;SHT31;49543;45.892;10.838;2023-05-07T07:03:40;20.51;73.03
63407;SHT31;49543;45.892;10.838;2023-05-07T07:06:05;20.61;73.29
63407;SHT31;49543;45.892;10.838;2023-05-07T07:08:31;20.72;73.23
63407;SHT31;49543;45.892;10.838;2023-05-07T07:10:57;20.77;72.97
63407;SHT31;49543;45.892;10.838;2023-05-07T07:13:22;20.89;72.91
63407;SHT31;49543;45.892;10.838;2023-05-07T07:15:48;21.02;72.90
63407;SHT31;49543;45.892;10.838;2023-05-07T07:18:13;21.15;72.81
63407;SHT31;49543;45.892;10.838;2023-05-07T07:20:38;21.31;72.59
63407;SHT31;49543;45.892;10.838;2023-05-07T07:23:04;21.44;71.98
63407;SHT31;49543;45.892;10.838;2023-05-07T07:25:29;21.51;71.99
63407;SHT31;49543;45.892;10.838;2023-05-07T07:27:55;21.63;72.14
63407;SHT31;49543;45.892;10.838;2023-05-07T07:30:20;21.71;72.44
63407;SHT31;49543;45.892;10.838;2023-05-07T07:32:46;21.83;72.09
63407;SHT31;49543;45.892;10.838;2023-05-07T07:35:11;21.85;71.50
63407;SHT31;49543;45.892;10.838;2023-05-07T07:37:36;21.93;71.43
63407;SHT31;49543;45.892;10.838;2023-05-07T07:40:02;21.99;71.11
63407;SHT31;49543;45.892;10.838;2023-05-07T07:42:28;22.05;71.08
63407;SHT31;49543;45.892;10.838;2023-05-07T07:44:54;22.06;71.28
63407;SHT31;49543;45.892;10.838;2023-05-07T07:47:20;22.09;71.15
63407;SHT31;49543;45.892;10.838;2023-05-07T07:49:45;22.12;71.30
63407;SHT31;49543;45.892;10.838;2023-05-07T07:52:10;22.12;71.61
63407;SHT31;49543;45.892;10.838;2023-05-07T07:54:36;22.13;71.51
63407;SHT31;49543;45.892;10.838;2023-05-07T07:57:01;22.12;71.65
63407;SHT31;49543;45.892;10.838;2023-05-07T07:59:27;22.07;71.81
63407;SHT31;49543;45.892;10.838;2023-05-07T08:01:52;22.07;71.59
63407;SHT31;49543;45.892;10.838;2023-05-07T08:04:21;22.03;71.81
63407;SHT31;49543;45.892;10.838;2023-05-07T08:06:46;22.06;71.99
63407;SHT31;49543;45.892;10.838;2023-05-07T08:09:11;22.06;71.82
63407;SHT31;49543;45.892;10.838;2023-05-07T08:11:38;22.06;72.29
63407;SHT31;49543;45.892;10.838;2023-05-07T08:14:03;22.07;72.55
63407;SHT31;49543;45.892;10.838;2023-05-07T08:16:29;22.12;72.56
63407;SHT31;49543;45.892;10.838;2023-05-07T08:18:55;22.10;72.31
63407;SHT31;49543;45.892;10.838;2023-05-07T08:21:20;22.09;71.44
63407;SHT31;49543;45.892;10.838;2023-05-07T08:23:46;22.09;70.58
63407;SHT31;49543;45.892;10.838;2023-05-07T08:26:11;22.00;70.38
63407;SHT31;49543;45.892;10.838;2023-05-07T08:28:36;21.90;70.01
63407;SHT31;49543;45.892;10.838;2023-05-07T08:31:02;21.88;70.49
63407;SHT31;49543;45.892;10.838;2023-05-07T08:33:27;21.85;71.29
63407;SHT31;49543;45.892;10.838;2023-05-07T08:35:53;21.88;71.60
63407;SHT31;49543;45.892;10.838;2023-05-07T08:38:18;21.89;71.77
63407;SHT31;49543;45.892;10.838;2023-05-07T08:40:44;21.92;73.28
63407;SHT31;49543;45.892;10.838;2023-05-07T08:43:12;21.97;73.34
63407;SHT31;49543;45.892;10.838;2023-05-07T08:45:39;22.00;73.02
63407;SHT31;49543;45.892;10.838;2023-05-07T08:48:08;22.02;73.41
63407;SHT31;49543;45.892;10.838;2023-05-07T08:50:38;22.00;73.77
63407;SHT31;49543;45.892;10.838;2023-05-07T08:53:04;22.03;73.88
63407;SHT31;49543;45.892;10.838;2023-05-07T08:55:30;22.03;74.38
63407;SHT31;49543;45.892;10.838;2023-05-07T08:57:56;22.05;72.81
63407;SHT31;49543;45.892;10.838;2023-05-07T09:00:21;22.06;71.76
63407;SHT31;49543;45.892;10.838;2023-05-07T09:02:47;22.07;71.89
63407;SHT31;49543;45.892;10.838;2023-05-07T09:05:12;22.13;71.82
63407;SHT31;49543;45.892;10.838;2023-05-07T09:07:37;22.14;71.01
63407;SHT31;49543;45.892;10.838;2023-05-07T09:10:04;22.17;70.44
63407;SHT31;49543;45.892;10.838;2023-05-07T09:12:29;22.23;70.54
63407;SHT31;49543;45.892;10.838;2023-05-07T09:14:56;22.25;70.45
63407;SHT31;49543;45.892;10.838;2023-05-07T09:17:21;22.30;70.62
63407;SHT31;49543;45.892;10.838;2023-05-07T09:19:47;22.31;70.57
63407;SHT31;49543;45.892;10.838;2023-05-07T09:22:13;22.34;71.58
63407;SHT31;49543;45.892;10.838;2023-05-07T09:24:38;22.39;71.95
63407;SHT31;49543;45.892;10.838;2023-05-07T09:27:05;22.37;72.59
63407;SHT31;49543;45.892;10.838;2023-05-07T09:29:31;22.37;72.26
63407;SHT31;49543;45.892;10.838;2023-05-07T09:32:06;22.41;71.71
63407;SHT31;49543;45.892;10.838;2023-05-07T09:34:31;22.43;71.09
63407;SHT31;49543;45.892;10.838;2023-05-07T09:37:04;22.37;70.04
63407;SHT31;49543;45.892;10.838;2023-05-07T09:39:46;22.29;70.20
63407;SHT31;49543;45.892;10.838;2023-05-07T09:42:12;22.27;70.23
63407;SHT31;49543;45.892;10.838;2023-05-07T09:44:40;22.30;70.07
63407;SHT31;49543;45.892;10.838;2023-05-07T09:47:07;22.36;70.41
63407;SHT31;49543;45.892;10.838;2023-05-07T09:49:37;22.45;70.15
63407;SHT31;49543;45.892;10.838;2023-05-07T09:52:04;22.57;70.16
63407;SHT31;49543;45.892;10.838;2023-05-07T09:54:32;22.68;69.34
63407;SHT31;49543;45.892;10.838;2023-05-07T09:57:00;22.60;68.02
63407;SHT31;49543;45.892;10.838;2023-05-07T09:59:27;22.61;67.94
63407;SHT31;49543;45.892;10.838;2023-05-07T10:01:54;22.69;68.25
63407;SHT31;49543;45.892;10.838;2023-05-07T10:04:22;22.84;68.03
63407;SHT31;49543;45.892;10.838;2023-05-07T10:06:47;22.95;67.92
63407;SHT31;49543;45.892;10.838;2023-05-07T10:09:13;23.02;67.36
63407;SHT31;49543;45.892;10.838;2023-05-07T10:11:40;23.17;67.09
63407;SHT31;49543;45.892;10.838;2023-05-07T10:14:07;23.39;66.50
63407;SHT31;49543;45.892;10.838;2023-05-07T10:16:33;23.77;66.00
63407;SHT31;49543;45.892;10.838;2023-05-07T10:19:03;24.50;65.29
63407;SHT31;49543;45.892;10.838;2023-05-07T10:21:29;25.29;62.77
63407;SHT31;49543;45.892;10.838;2023-05-07T10:24:00;26.12;61.09
63407;SHT31;49543;45.892;10.838;2023-05-07T10:26:29;26.88;58.57
63407;SHT31;49543;45.892;10.838;2023-05-07T10:28:59;27.03;57.82
63407;SHT31;49543;45.892;10.838;2023-05-07T10:34:25;26.05;60.49
63407;SHT31;49543;45.892;10.838;2023-05-07T10:36:51;25.70;61.33
63407;SHT31;49543;45.892;10.838;2023-05-07T10:39:17;25.49;61.73
63407;SHT31;49543;45.892;10.838;2023-05-07T10:41:44;25.39;61.91
63407;SHT31;49543;45.892;10.838;2023-05-07T10:44:10;25.40;61.55
63407;SHT31;49543;45.892;10.838;2023-05-07T10:46:36;25.23;61.30
63407;SHT31;49543;45.892;10.838;2023-05-07T10:51:29;24.96;61.38
63407;SHT31;49543;45.892;10.838;2023-05-07T10:56:42;24.99;61.47
63407;SHT31;49543;45.892;10.838;2023-05-07T11:02:04;25.32;61.17
63407;SHT31;49543;45.892;10.838;2023-05-07T11:04:31;25.83;60.57
63407;SHT31;49543;45.892;10.838;2023-05-07T11:15:12;26.90;59.01
63407;SHT31;49543;45.892;10.838;2023-05-07T11:17:54;27.17;58.90
63407;SHT31;49543;45.892;10.838;2023-05-07T11:20:20;28.27;57.46
63407;SHT31;49543;45.892;10.838;2023-05-07T11:22:46;29.11;55.86
63407;SHT31;49543;45.892;10.838;2023-05-07T11:25:18;29.81;54.52
63407;SHT31;49543;45.892;10.838;2023-05-07T11:27:47;30.34;52.92
63407;SHT31;49543;45.892;10.838;2023-05-07T11:30:18;30.68;51.92
63407;SHT31;49543;45.892;10.838;2023-05-07T11:32:47;30.40;51.86
63407;SHT31;49543;45.892;10.838;2023-05-07T11:35:15;30.81;50.74
63407;SHT31;49543;45.892;10.838;2023-05-07T11:37:41;31.27;50.75
63407;SHT31;49543;45.892;10.838;2023-05-07T11:40:08;31.44;49.69
63407;SHT31;49543;45.892;10.838;2023-05-07T11:42:37;30.86;50.69
63407;SHT31;49543;45.892;10.838;2023-05-07T11:45:04;30.39;51.56
63407;SHT31;49543;45.892;10.838;2023-05-07T11:47:31;30.91;51.25
63407;SHT31;49543;45.892;10.838;2023-05-07T11:50:02;30.88;50.30
63407;SHT31;49543;45.892;10.838;2023-05-07T11:52:28;31.03;50.48
63407;SHT31;49543;45.892;10.838;2023-05-07T11:54:55;30.89;50.76
63407;SHT31;49543;45.892;10.838;2023-05-07T11:57:22;30.77;50.64
63407;SHT31;49543;45.892;10.838;2023-05-07T11:59:47;30.94;50.13
63407;SHT31;49543;45.892;10.838;2023-05-07T12:02:17;30.61;49.95
63407;SHT31;49543;45.892;10.838;2023-05-07T12:04:42;30.94;50.28
63407;SHT31;49543;45.892;10.838;2023-05-07T12:07:15;30.68;50.17
63407;SHT31;49543;45.892;10.838;2023-05-07T12:09:43;29.54;52.09
63407;SHT31;49543;45.892;10.838;2023-05-07T12:12:09;29.74;51.58
63407;SHT31;49543;45.892;10.838;2023-05-07T12:14:39;29.59;52.45
63407;SHT31;49543;45.892;10.838;2023-05-07T12:17:06;29.40;53.48
63407;SHT31;49543;45.892;10.838;2023-05-07T12:19:33;29.38;53.26
63407;SHT31;49543;45.892;10.838;2023-05-07T12:21:59;29.37;53.66
63407;SHT31;49543;45.892;10.838;2023-05-07T12:24:25;29.41;54.38
63407;SHT31;49543;45.892;10.838;2023-05-07T12:26:50;29.28;55.05
63407;SHT31;49543;45.892;10.838;2023-05-07T12:29:16;28.31;56.81
63407;SHT31;49543;45.892;10.838;2023-05-07T12:31:42;28.10;57.49
63407;SHT31;49543;45.892;10.838;2023-05-07T12:34:07;28.31;57.51
63407;SHT31;49543;45.892;10.838;2023-05-07T12:36:39;27.83;57.45
63407;SHT31;49543;45.892;10.838;2023-05-07T12:39:09;27.46;58.61
63407;SHT31;49543;45.892;10.838;2023-05-07T12:44:22;27.82;60.85
63407;SHT31;49543;45.892;10.838;2023-05-07T12:46:47;27.89;57.82
63407;SHT31;49543;45.892;10.838;2023-05-07T12:49:13;27.76;59.19
63407;SHT31;49543;45.892;10.838;2023-05-07T12:51:38;27.63;59.11
63407;SHT31;49543;45.892;10.838;2023-05-07T12:54:04;27.55;58.75
63407;SHT31;49543;45.892;10.838;2023-05-07T12:56:35;27.45;61.11
63407;SHT31;49543;45.892;10.838;2023-05-07T12:59:01;27.14;60.13
63407;SHT31;49543;45.892;10.838;2023-05-07T13:01:30;26.98;62.68
63407;SHT31;49543;45.892;10.838;2023-05-07T17:01:43;23.89;75.99
63407;SHT31;49543;45.892;10.838;2023-05-07T17:04:08;23.86;73.40
63407;SHT31;49543;45.892;10.838;2023-05-07T17:06:33;23.81;72.52
63407;SHT31;49543;45.892;10.838;2023-05-07T17:08:59;23.82;70.62
63407;SHT31;49543;45.892;10.838;2023-05-07T17:11:25;23.85;71.74
63407;SHT31;49543;45.892;10.838;2023-05-07T17:13:56;23.88;74.01
63407;SHT31;49543;45.892;10.838;2023-05-07T17:16:21;23.79;72.68
63407;SHT31;49543;45.892;10.838;2023-05-07T17:18:47;23.77;73.79
63407;SHT31;49543;45.892;10.838;2023-05-07T17:21:12;23.78;73.87
63407;SHT31;49543;45.892;10.838;2023-05-07T17:23:38;23.79;74.90
63407;SHT31;49543;45.892;10.838;2023-05-07T17:26:10;23.81;75.49
63407;SHT31;49543;45.892;10.838;2023-05-07T17:28:35;23.81;76.09
63407;SHT31;49543;45.892;10.838;2023-05-07T17:31:01;23.81;75.68
63407;SHT31;49543;45.892;10.838;2023-05-07T17:33:26;23.77;75.78
63407;SHT31;49543;45.892;10.838;2023-05-07T17:35:52;23.81;71.93
63407;SHT31;49543;45.892;10.838;2023-05-07T17:38:18;23.74;69.98
63407;SHT31;49543;45.892;10.838;2023-05-07T17:40:44;23.77;70.85
63407;SHT31;49543;45.892;10.838;2023-05-07T17:43:09;23.78;70.41
63407;SHT31;49543;45.892;10.838;2023-05-07T17:45:35;23.79;72.01
63407;SHT31;49543;45.892;10.838;2023-05-07T17:48:00;23.77;71.53
63407;SHT31;49543;45.892;10.838;2023-05-07T17:50:27;23.77;71.00
63407;SHT31;49543;45.892;10.838;2023-05-07T17:52:52;23.81;70.41
63407;SHT31;49543;45.892;10.838;2023-05-07T17:55:18;23.77;70.69
63407;SHT31;49543;45.892;10.838;2023-05-07T17:57:43;23.75;70.32
63407;SHT31;49543;45.892;10.838;2023-05-07T18:00:09;23.79;69.77
63407;SHT31;49543;45.892;10.838;2023-05-07T18:02:35;23.78;69.87
63407;SHT31;49543;45.892;10.838;2023-05-07T18:05:01;23.75;70.59
63407;SHT31;49543;45.892;10.838;2023-05-07T18:07:26;23.71;71.83
63407;SHT31;49543;45.892;10.838;2023-05-07T18:09:52;23.67;72.05
63407;SHT31;49543;45.892;10.838;2023-05-07T18:12:17;23.64;73.66
63407;SHT31;49543;45.892;10.838;2023-05-07T18:14:42;23.46;75.38
63407;SHT31;49543;45.892;10.838;2023-05-07T18:17:08;23.09;78.71
63407;SHT31;49543;45.892;10.838;2023-05-07T18:19:34;22.84;81.19
63407;SHT31;49543;45.892;10.838;2023-05-07T18:21:59;22.67;83.45
63407;SHT31;49543;45.892;10.838;2023-05-07T18:24:24;22.44;83.48
63407;SHT31;49543;45.892;10.838;2023-05-07T18:26:51;22.16;80.92
63407;SHT31;49543;45.892;10.838;2023-05-07T18:29:17;21.95;81.21
63407;SHT31;49543;45.892;10.838;2023-05-07T18:31:42;21.88;81.09
63407;SHT31;49543;45.892;10.838;2023-05-07T18:34:07;21.92;80.97
63407;SHT31;49543;45.892;10.838;2023-05-07T18:36:34;21.88;81.40
63407;SHT31;49543;45.892;10.838;2023-05-07T18:38:59;21.86;84.13
63407;SHT31;49543;45.892;10.838;2023-05-07T18:41:25;21.83;83.19
63407;SHT31;49543;45.892;10.838;2023-05-07T18:43:51;21.82;82.67
63407;SHT31;49543;45.892;10.838;2023-05-07T18:46:16;21.86;78.75
63407;SHT31;49543;45.892;10.838;2023-05-07T18:48:41;21.78;76.78
63407;SHT31;49543;45.892;10.838;2023-05-07T18:51:07;21.72;79.74
63407;SHT31;49543;45.892;10.838;2023-05-07T18:53:39;21.72;79.14
63407;SHT31;49543;45.892;10.838;2023-05-07T18:56:05;21.74;80.96
63407;SHT31;49543;45.892;10.838;2023-05-07T18:58:32;21.61;81.35
63407;SHT31;49543;45.892;10.838;2023-05-07T19:00:59;21.58;81.80
63407;SHT31;49543;45.892;10.838;2023-05-07T19:03:25;21.51;82.35
63407;SHT31;49543;45.892;10.838;2023-05-07T19:05:51;21.35;84.55
63407;SHT31;49543;45.892;10.838;2023-05-07T19:08:17;21.23;87.36
63407;SHT31;49543;45.892;10.838;2023-05-07T19:10:42;20.90;88.04
63407;SHT31;49543;45.892;10.838;2023-05-07T19:13:09;20.64;86.33
63407;SHT31;49543;45.892;10.838;2023-05-07T19:15:35;20.56;86.88
63407;SHT31;49543;45.892;10.838;2023-05-07T19:18:00;20.20;86.10
63407;SHT31;49543;45.892;10.838;2023-05-07T19:20:26;20.11;87.12
63407;SHT31;49543;45.892;10.838;2023-05-07T19:22:51;20.20;88.19
63407;SHT31;49543;45.892;10.838;2023-05-07T19:25:17;20.25;88.58
63407;SHT31;49543;45.892;10.838;2023-05-07T19:27:42;20.29;86.87
63407;SHT31;49543;45.892;10.838;2023-05-07T19:30:08;20.37;86.60
63407;SHT31;49543;45.892;10.838;2023-05-07T19:32:34;20.31;84.43
63407;SHT31;49543;45.892;10.838;2023-05-07T19:34:59;20.31;85.75
63407;SHT31;49543;45.892;10.838;2023-05-07T19:37:25;20.28;85.40
63407;SHT31;49543;45.892;10.838;2023-05-07T19:39:52;20.18;85.48
63407;SHT31;49543;45.892;10.838;2023-05-07T19:42:18;20.14;85.45
63407;SHT31;49543;45.892;10.838;2023-05-07T19:44:43;19.97;84.74
63407;SHT31;49543;45.892;10.838;2023-05-07T19:47:09;19.87;84.89
63407;SHT31;49543;45.892;10.838;2023-05-07T19:49:35;19.83;84.24
63407;SHT31;49543;45.892;10.838;2023-05-07T19:52:00;19.91;83.82
63407;SHT31;49543;45.892;10.838;2023-05-07T19:54:26;20.03;84.38
63407;SHT31;49543;45.892;10.838;2023-05-07T19:56:51;20.00;83.96
63407;SHT31;49543;45.892;10.838;2023-05-07T19:59:16;20.07;85.37
63407;SHT31;49543;45.892;10.838;2023-05-07T20:01:42;20.08;84.99
63407;SHT31;49543;45.892;10.838;2023-05-07T20:04:07;20.01;84.37
63407;SHT31;49543;45.892;10.838;2023-05-07T20:06:33;20.00;84.57
63407;SHT31;49543;45.892;10.838;2023-05-07T20:08:58;19.84;84.16
63407;SHT31;49543;45.892;10.838;2023-05-07T20:11:24;19.84;83.67
63407;SHT31;49543;45.892;10.838;2023-05-07T20:13:49;19.86;82.43
63407;SHT31;49543;45.892;10.838;2023-05-07T20:16:15;19.80;82.94
63407;SHT31;49543;45.892;10.838;2023-05-07T20:18:40;19.76;84.92
63407;SHT31;49543;45.892;10.838;2023-05-07T20:21:06;19.87;84.52
63407;SHT31;49543;45.892;10.838;2023-05-07T20:23:31;19.87;85.28
63407;SHT31;49543;45.892;10.838;2023-05-07T20:25:57;19.91;85.48
63407;SHT31;49543;45.892;10.838;2023-05-07T20:28:23;19.97;85.70
63407;SHT31;49543;45.892;10.838;2023-05-07T20:30:48;19.98;85.45
63407;SHT31;49543;45.892;10.838;2023-05-07T20:33:14;20.03;85.36
63407;SHT31;49543;45.892;10.838;2023-05-07T20:35:40;19.82;84.31
63407;SHT31;49543;45.892;10.838;2023-05-07T20:38:05;19.44;84.92
63407;SHT31;49543;45.892;10.838;2023-05-07T20:40:31;19.29;84.71
63407;SHT31;49543;45.892;10.838;2023-05-07T20:42:59;19.25;85.15
63407;SHT31;49543;45.892;10.838;2023-05-07T20:45:24;19.35;86.56
63407;SHT31;49543;45.892;10.838;2023-05-07T20:47:50;19.53;86.36
63407;SHT31;49543;45.892;10.838;2023-05-07T20:50:15;19.69;86.42
63407;SHT31;49543;45.892;10.838;2023-05-07T20:52:41;19.79;86.41
63407;SHT31;49543;45.892;10.838;2023-05-07T20:55:06;19.83;85.98
63407;SHT31;49543;45.892;10.838;2023-05-07T20:57:32;19.90;85.89
63407;SHT31;49543;45.892;10.838;2023-05-07T20:59:58;19.86;85.83
63407;SHT31;49543;45.892;10.838;2023-05-07T21:02:23;19.66;85.31
63407;SHT31;49543;45.892;10.838;2023-05-07T21:04:49;19.69;85.78
63407;SHT31;49543;45.892;10.838;2023-05-07T21:07:16;19.72;86.08
63407;SHT31;49543;45.892;10.838;2023-05-07T21:09:42;19.74;85.88
63407;SHT31;49543;45.892;10.838;2023-05-07T21:12:07;19.80;85.79
63407;SHT31;49543;45.892;10.838;2023-05-07T21:14:33;19.87;85.91
63407;SHT31;49543;45.892;10.838;2023-05-07T21:17:00;19.84;85.63
63407;SHT31;49543;45.892;10.838;2023-05-07T21:19:25;19.82;85.36
